Time;durP1;ratioP1;P1;durP2;ratioP2;P2;SDS_P1;SDS_P2;PMS_P1;PMS_P2;Temp;Humidity;BMP_temperature;BMP_pressure;BME280_temperature;BME280_humidity;BME280_pressure;Samples;Min_cycle;Max_cycle;Signal;HPM_P1;HPM_P2
2022/01/09 00:00:07;;;;;;;3.88;2.50;;;1.80;69.40;;;-0.23;75.04;94402.06;4932963;29;20130;-67
2022/01/09 00:02:32;;;;;;;3.65;2.10;;;1.90;69.40;;;-0.19;75.34;94400.00;4950005;28;20039;-67
2022/01/09 00:04:58;;;;;;;3.88;2.33;;;2.00;69.20;;;-0.19;75.66;94398.22;4932879;29;20132;-67
2022/01/09 00:07:24;;;;;;;5.97;2.35;;;1.90;69.10;;;-0.22;75.89;94402.91;4948434;29;20035;-68
2022/01/09 00:09:50;;;;;;;5.07;2.70;;;1.90;69.60;;;-0.20;75.47;94395.81;4948227;28;20530;-67
2022/01/09 00:12:15;;;;;;;3.75;2.03;;;1.80;69.40;;;-0.22;76.01;94383.06;4948324;28;20031;-67
2022/01/09 00:14:41;;;;;;;4.40;2.60;;;1.80;69.80;;;-0.23;75.96;94391.75;4948628;29;20047;-67
2022/01/09 00:17:07;;;;;;;5.30;2.70;;;1.80;69.90;;;-0.20;76.10;94375.13;4950024;28;20035;-67
2022/01/09 00:19:32;;;;;;;4.50;2.72;;;1.90;70.00;;;-0.18;76.19;94381.75;4949201;28;20110;-67
2022/01/09 00:21:58;;;;;;;4.88;2.42;;;1.90;69.60;;;-0.17;76.18;94385.94;4948709;28;20031;-68
2022/01/09 00:24:24;;;;;;;4.57;2.40;;;1.90;69.80;;;-0.15;76.04;94383.19;4947723;28;20514;-67
2022/01/09 00:26:49;;;;;;;4.53;2.30;;;1.90;69.70;;;-0.14;75.60;94380.44;4948439;29;20495;-67
2022/01/09 00:29:15;;;;;;;4.32;2.53;;;1.90;69.40;;;-0.12;75.87;94367.34;4945248;28;20044;-67
2022/01/09 00:31:41;;;;;;;3.80;2.42;;;1.90;69.60;;;-0.12;76.08;94370.75;4950170;28;20036;-67
2022/01/09 00:34:07;;;;;;;5.85;2.78;;;1.90;69.50;;;-0.10;75.71;94392.03;4935252;29;20039;-67
2022/01/09 00:36:32;;;;;;;6.03;2.95;;;1.90;69.50;;;-0.12;75.42;94377.69;4934119;29;20650;-66
2022/01/09 00:38:58;;;;;;;4.63;2.88;;;1.80;69.30;;;-0.12;75.96;94357.81;4951274;29;20697;-67
2022/01/09 00:41:24;;;;;;;4.82;2.42;;;1.80;69.20;;;-0.11;75.23;94351.69;4951085;28;20130;-66
2022/01/09 00:43:50;;;;;;;6.60;2.88;;;1.90;68.50;;;-0.08;75.52;94353.94;4952499;28;20036;-66
2022/01/09 00:46:17;;;;;;;10.98;4.03;;;1.90;68.30;;;-0.06;75.26;94375.22;4918402;28;20098;-66
2022/01/09 00:48:42;;;;;;;12.25;4.72;;;1.90;67.80;;;-0.03;74.80;94354.22;4951110;28;20035;-65
2022/01/09 00:51:08;;;;;;;6.55;3.15;;;2.00;67.80;;;-0.02;74.72;94353.25;4952040;28;20046;-67
2022/01/09 00:53:34;;;;;;;9.73;3.45;;;2.00;67.50;;;0.02;74.77;94374.41;4951119;28;20028;-67
2022/01/09 00:55:59;;;;;;;5.38;2.63;;;2.00;67.30;;;0.03;74.44;94364.88;4950355;29;20503;-66
2022/01/09 00:58:25;;;;;;;9.25;3.63;;;2.00;67.70;;;0.06;74.51;94349.84;4950752;28;20050;-67
2022/01/09 01:00:52;;;;;;;4.70;2.47;;;2.10;67.50;;;0.09;74.38;94349.50;4951842;28;20031;-67
2022/01/09 01:03:19;;;;;;;3.22;1.85;;;2.10;67.20;;;0.09;74.76;94341.75;4935185;29;20034;-67
2022/01/09 01:05:44;;;;;;;4.40;2.00;;;2.10;67.60;;;0.11;74.45;94329.47;4950679;29;20043;-66
2022/01/09 01:08:10;;;;;;;4.82;2.10;;;2.20;67.70;;;0.15;74.47;94333.31;4933931;28;20040;-66
2022/01/09 01:10:36;;;;;;;3.83;2.30;;;2.30;67.70;;;0.19;74.91;94333.78;4950770;28;20042;-67
2022/01/09 01:13:02;;;;;;;3.53;2.30;;;2.40;67.70;;;0.20;74.43;94336.19;4951683;28;20035;-67
2022/01/09 01:15:28;;;;;;;3.13;2.00;;;2.30;67.40;;;0.21;74.92;94326.66;4915826;29;20508;-68
2022/01/09 01:17:54;;;;;;;3.08;2.00;;;2.30;67.70;;;0.23;74.63;94322.97;4932765;29;20110;-67
2022/01/09 01:20:22;;;;;;;3.95;2.15;;;2.30;68.30;;;0.24;75.37;94313.44;4950296;28;20090;-68
2022/01/09 01:22:49;;;;;;;4.65;2.35;;;2.40;68.40;;;0.27;75.55;94318.25;4950503;29;20062;-67
2022/01/09 01:25:16;;;;;;;3.67;2.20;;;2.40;68.50;;;0.30;75.26;94304.97;4934329;29;20050;-67
2022/01/09 01:27:42;;;;;;;3.78;1.95;;;2.50;68.60;;;0.32;75.66;94303.03;4934711;29;20040;-67
2022/01/09 01:30:08;;;;;;;2.78;1.98;;;2.50;68.30;;;0.32;75.22;94309.97;4934203;29;20407;-67
2022/01/09 01:32:34;;;;;;;3.58;2.08;;;2.50;68.30;;;0.31;75.65;94301.41;4951554;28;20031;-67
2022/01/09 01:35:00;;;;;;;5.75;2.28;;;2.40;68.50;;;0.32;75.21;94308.19;4950898;28;20027;-67
2022/01/09 01:37:26;;;;;;;3.33;2.20;;;2.40;68.70;;;0.32;75.46;94303.03;4934274;29;20047;-67
2022/01/09 01:39:52;;;;;;;3.38;1.83;;;2.40;68.80;;;0.31;75.73;94301.41;4968395;23;20522;-68
2022/01/09 01:42:18;;;;;;;3.08;1.77;;;2.40;68.70;;;0.34;75.99;94295.09;4909836;28;20306;-67
2022/01/09 01:44:51;;;;;;;4.45;2.75;;;2.50;68.90;;;0.36;75.45;94291.38;4947136;29;20038;-65
2022/01/09 01:47:19;;;;;;;3.13;1.77;;;2.40;69.00;;;0.32;76.09;94287.50;4951110;28;20035;-65
2022/01/09 01:49:47;;;;;;;3.78;2.30;;;2.40;70.10;;;0.33;76.43;94276.19;4934576;29;20473;-65
2022/01/09 01:52:15;;;;;;;2.60;1.65;;;2.40;70.70;;;0.36;76.77;94277.63;4930400;29;20039;-65
2022/01/09 01:54:42;;;;;;;3.05;1.92;;;2.50;70.80;;;0.36;76.81;94262.91;4930775;29;20036;-64
2022/01/09 01:57:09;;;;;;;3.63;2.20;;;2.50;71.00;;;0.35;76.93;94260.50;4899583;29;20040;-65
2022/01/09 01:59:35;;;;;;;3.17;1.67;;;2.40;71.40;;;0.31;77.04;94249.69;4899436;29;20120;-66
2022/01/09 02:02:00;;;;;;;2.80;1.63;;;2.30;71.50;;;0.29;77.15;94272.34;4931084;29;20027;-65
2022/01/09 02:04:26;;;;;;;2.78;1.70;;;2.20;71.60;;;0.30;76.83;94304.97;4929775;28;20063;-64
2022/01/09 02:06:53;;;;;;;5.13;2.20;;;2.20;71.40;;;0.29;77.24;94304.19;4930904;29;20468;-65
2022/01/09 02:09:19;;;;;;;4.32;2.20;;;2.20;71.70;;;0.30;77.42;94290.28;4896406;29;20051;-65
2022/01/09 02:11:45;;;;;;;3.63;2.17;;;2.30;72.20;;;0.31;78.36;94296.25;4896115;29;20460;-65
2022/01/09 02:14:11;;;;;;;5.45;2.20;;;2.40;72.70;;;0.32;78.52;94297.84;4920784;29;20048;-64
2022/01/09 02:16:44;;;;;;;3.53;2.10;;;2.40;72.90;;;0.35;79.56;94304.47;4913189;29;20070;-68
2022/01/09 02:19:15;;;;;;;3.95;2.05;;;2.40;73.20;;;0.30;78.96;94297.22;4926870;29;20032;-64
2022/01/09 02:21:45;;;;;;;4.30;2.20;;;2.20;74.30;;;0.30;80.50;94294.63;4899897;29;20051;-64
2022/01/09 02:24:12;;;;;;;3.60;2.05;;;2.30;75.10;;;0.28;80.48;94291.41;4882425;28;20102;-66
2022/01/09 02:26:38;;;;;;;4.25;2.03;;;2.30;76.00;;;0.27;80.63;94284.63;4915411;29;20036;-65
2022/01/09 02:29:07;;;;;;;4.22;2.03;;;2.30;76.50;;;0.28;81.01;94275.91;4914371;29;20040;-65
2022/01/09 02:31:34;;;;;;;5.68;2.60;;;2.30;77.10;;;0.24;82.16;94259.13;4930550;29;20039;-66
2022/01/09 02:34:00;;;;;;;5.78;2.42;;;2.40;77.30;;;0.26;82.21;94252.81;4913119;29;20051;-66
2022/01/09 02:36:25;;;;;;;5.65;2.03;;;2.40;78.00;;;0.27;83.32;94240.69;4901910;28;20511;-66
2022/01/09 02:38:51;;;;;;;4.43;2.55;;;2.40;78.40;;;0.27;83.51;94243.28;4918561;29;20024;-66
2022/01/09 02:41:18;;;;;;;4.28;2.20;;;2.30;78.90;;;0.29;83.77;94241.31;4934427;29;20036;-66
2022/01/09 02:43:44;;;;;;;3.08;1.83;;;2.50;78.90;;;0.32;84.12;94253.09;4934168;29;20054;-64
2022/01/09 02:46:17;;;;;;;2.72;1.67;;;2.40;79.30;;;0.32;84.40;94247.94;4916754;28;20417;-68
2022/01/09 02:48:44;;;;;;;2.63;1.73;;;2.50;79.40;;;0.35;84.73;94240.63;4904446;29;20566;-66
2022/01/09 02:51:14;;;;;;;3.15;1.95;;;2.40;79.30;;;0.38;85.09;94242.88;4913893;29;20043;-66
2022/01/09 02:53:41;;;;;;;3.33;1.55;;;2.50;79.30;;;0.43;85.12;94242.34;4919229;29;20040;-66
2022/01/09 02:56:08;;;;;;;2.60;1.40;;;2.50;79.60;;;0.43;85.64;94232.81;4918025;29;20562;-65
2022/01/09 02:58:33;;;;;;;3.00;1.60;;;2.60;79.90;;;0.45;86.05;94241.19;4898751;29;20047;-65
2022/01/09 03:01:00;;;;;;;3.13;1.20;;;2.60;80.20;;;0.45;86.14;94230.84;4920699;29;20028;-65
2022/01/09 03:03:26;;;;;;;4.07;1.42;;;2.60;80.70;;;0.49;86.76;94232.13;4918727;29;20051;-65
2022/01/09 03:05:51;;;;;;;3.17;1.35;;;2.60;80.70;;;0.52;86.44;94236.94;4917494;29;20051;-65
2022/01/09 03:08:17;;;;;;;2.72;1.30;;;2.60;80.90;;;0.54;87.08;94227.22;4933702;29;20492;-65
2022/01/09 03:10:43;;;;;;;2.08;1.33;;;2.70;81.10;;;0.57;87.35;94219.13;4934006;29;20096;-65
2022/01/09 03:13:09;;;;;;;1.77;1.00;;;2.60;81.50;;;0.58;87.74;94214.75;4918201;29;20035;-64
2022/01/09 03:15:35;;;;;;;1.85;0.80;;;2.70;81.50;;;0.61;87.50;94210.03;4902278;29;20047;-66
2022/01/09 03:18:00;;;;;;;1.65;0.90;;;2.70;81.80;;;0.60;88.65;94208.41;4949423;29;20122;-64
2022/01/09 03:20:27;;;;;;;3.20;1.38;;;2.70;81.90;;;0.65;88.55;94207.09;4882040;29;20047;-64
2022/01/09 03:22:54;;;;;;;2.78;1.10;;;2.70;82.00;;;0.64;88.62;94198.53;4898940;29;20492;-64
2022/01/09 03:25:21;;;;;;;9.05;4.93;;;2.80;82.10;;;0.66;88.94;94188.81;4908586;29;20035;-64
2022/01/09 03:27:49;;;;;;;6.47;3.97;;;2.80;82.20;;;0.67;89.45;94179.25;4902415;29;20134;-65
2022/01/09 03:30:15;;;;;;;5.30;3.53;;;2.80;82.30;;;0.69;89.47;94174.75;4917310;28;20066;-65
2022/01/09 03:32:41;;;;;;;9.88;4.53;;;2.80;82.50;;;0.71;90.06;94162.44;4917912;29;20031;-65
2022/01/09 03:35:11;;;;;;;7.60;4.18;;;2.80;82.40;;;0.71;90.83;94162.44;4933074;29;20062;-65
2022/01/09 03:37:37;;;;;;;3.10;2.10;;;2.70;82.80;;;0.70;90.42;94156.47;4933724;29;20027;-66
2022/01/09 03:40:08;;;;;;;2.45;1.25;;;2.70;83.00;;;0.70;91.17;94161.63;4932945;29;20032;-65
2022/01/09 03:42:34;;;;;;;2.00;1.00;;;2.70;83.20;;;0.71;90.63;94158.06;4892979;29;20035;-65
2022/01/09 03:45:00;;;;;;;2.67;1.40;;;2.70;83.20;;;0.70;90.90;94155.66;4926245;29;20626;-65
2022/01/09 03:47:26;;;;;;;2.38;1.25;;;2.70;83.30;;;0.70;90.66;94155.66;4917695;29;20525;-66
2022/01/09 03:49:52;;;;;;;3.63;1.60;;;2.60;83.60;;;0.69;91.33;94154.03;4901003;29;20032;-65
2022/01/09 03:52:18;;;;;;;2.45;1.20;;;2.70;83.70;;;0.70;91.38;94153.06;4916903;28;20419;-65
2022/01/09 03:54:44;;;;;;;2.67;1.10;;;2.60;83.60;;;0.66;91.34;94151.78;4900546;29;20031;-65
2022/01/09 03:57:09;;;;;;;1.55;0.75;;;2.60;83.90;;;0.67;91.44;94155.97;4933176;29;20036;-65
2022/01/09 03:59:35;;;;;;;1.50;0.75;;;2.60;83.90;;;0.65;91.27;94143.22;4916333;29;20148;-66
2022/01/09 04:02:02;;;;;;;1.08;0.60;;;2.60;84.00;;;0.63;91.34;94141.78;4933069;29;20028;-64
2022/01/09 04:04:27;;;;;;;1.70;1.08;;;2.60;83.90;;;0.64;91.31;94140.81;4915651;28;20040;-65
2022/01/09 04:06:53;;;;;;;2.78;1.65;;;2.60;83.90;;;0.63;92.19;94141.78;4917328;29;20051;-64
2022/01/09 04:09:38;;;;;;;4.45;1.30;;;2.60;83.80;;;0.64;92.05;94140.81;4916541;29;20044;-65
2022/01/09 04:12:14;;;;;;;1.55;1.10;;;2.70;83.70;;;0.67;92.71;94143.03;4919704;29;20036;-66
2022/01/09 04:14:41;;;;;;;2.70;0.70;;;2.70;83.50;;;0.68;92.03;94155.00;4917114;29;20063;-65
2022/01/09 04:17:17;;;;;;;1.20;0.60;;;2.70;83.80;;;0.68;92.77;94162.75;4932866;29;20495;-64
2022/01/09 04:19:43;;;;;;;1.20;0.65;;;2.60;83.80;;;0.70;92.31;94155.66;4946788;28;20862;-65
2022/01/09 04:22:09;;;;;;;2.25;1.52;;;2.80;83.70;;;0.72;92.22;94166.63;4932188;28;20040;-64
2022/01/09 04:24:35;;;;;;;3.08;0.70;;;2.80;83.60;;;0.72;92.32;94164.03;4931774;29;20467;-65
2022/01/09 04:27:02;;;;;;;1.73;0.90;;;2.70;83.70;;;0.71;92.24;94154.66;4916852;29;20046;-65
2022/01/09 04:29:28;;;;;;;0.70;0.55;;;2.80;83.70;;;0.70;92.40;94155.66;4907672;29;20118;-68
2022/01/09 04:31:54;;;;;;;1.00;0.57;;;2.80;83.40;;;0.72;92.36;94164.03;4932764;29;20463;-67
2022/01/09 04:34:19;;;;;;;1.05;0.40;;;2.80;83.40;;;0.72;91.98;94153.69;4931488;29;20079;-64
2022/01/09 04:36:45;;;;;;;0.70;0.30;;;2.70;83.30;;;0.70;92.59;94151.28;4931683;29;20059;-65
2022/01/09 04:39:11;;;;;;;0.80;0.30;;;2.70;83.10;;;0.73;92.51;94148.34;4947538;28;20515;-65
2022/01/09 04:41:37;;;;;;;1.05;0.40;;;2.70;83.10;;;0.78;92.42;94152.97;4916203;29;20043;-65
2022/01/09 04:44:06;;;;;;;0.57;0.38;;;2.70;83.40;;;0.86;92.85;94145.94;4902559;29;20145;-65
2022/01/09 04:46:42;;;;;;;0.98;0.40;;;2.80;83.40;;;0.95;91.82;94143.28;4928356;29;20087;-65
2022/01/09 04:49:08;;;;;;;0.75;0.30;;;2.90;83.30;;;1.04;92.44;94150.75;4915778;29;20050;-66
2022/01/09 04:51:34;;;;;;;0.60;0.30;;;3.00;83.40;;;1.12;92.11;94150.66;4933222;28;20036;-67
2022/01/09 04:53:59;;;;;;;0.57;0.30;;;3.10;83.30;;;1.19;92.13;94146.38;4900427;29;20100;-65
2022/01/09 04:56:25;;;;;;;0.55;0.35;;;3.10;83.40;;;1.24;92.19;94148.44;4915195;29;20040;-64
2022/01/09 04:58:51;;;;;;;1.17;0.55;;;3.20;83.30;;;1.31;92.60;94154.50;4915841;29;20039;-65
2022/01/09 05:01:17;;;;;;;0.82;0.38;;;3.30;83.40;;;1.39;92.87;94166.56;4931857;29;20031;-65
2022/01/09 05:03:42;;;;;;;0.85;0.40;;;3.30;83.40;;;1.44;92.00;94159.84;4928179;29;20088;-65
2022/01/09 05:06:08;;;;;;;2.55;0.40;;;3.40;83.20;;;1.51;92.36;94171.09;4928584;29;20448;-67
2022/01/09 05:08:34;;;;;;;0.65;0.22;;;3.50;83.00;;;1.56;92.37;94178.31;4940696;28;20039;-65
2022/01/09 05:11:00;;;;;;;0.88;0.30;;;3.50;83.00;;;1.61;92.52;94176.00;4929588;29;20112;-66
2022/01/09 05:13:26;;;;;;;0.47;0.20;;;3.60;82.80;;;1.66;92.54;94167.69;4915839;29;20126;-64
2022/01/09 05:15:51;;;;;;;0.93;0.30;;;3.60;82.60;;;1.73;92.51;94177.13;4915584;29;20183;-64
2022/01/09 05:18:18;;;;;;;1.17;0.30;;;3.70;82.50;;;1.79;92.45;94184.16;4899488;28;20043;-65
2022/01/09 05:20:43;;;;;;;1.25;0.40;;;3.80;82.40;;;1.82;91.97;94170.88;4900107;29;20031;-65
2022/01/09 05:23:09;;;;;;;0.60;0.30;;;3.70;82.40;;;1.89;91.98;94167.53;4915584;29;20598;-65
2022/01/09 05:25:35;;;;;;;1.52;0.15;;;3.80;82.30;;;1.93;92.01;94181.75;4947068;29;20034;-65
2022/01/09 05:28:01;;;;;;;0.60;0.30;;;3.80;82.30;;;1.97;92.06;94176.00;4915011;29;20032;-65
2022/01/09 05:30:27;;;;;;;0.70;0.20;;;3.90;82.00;;;2.03;91.44;94174.47;4929981;28;20035;-65
2022/01/09 05:32:53;;;;;;;0.70;0.30;;;4.00;81.80;;;2.07;91.86;94155.78;4900001;29;20110;-65
2022/01/09 05:35:19;;;;;;;1.17;0.25;;;4.00;81.80;;;2.14;91.75;94176.59;4931147;29;20059;-67
2022/01/09 05:37:45;;;;;;;1.60;0.25;;;4.10;81.40;;;2.20;91.28;94173.25;4931022;29;20035;-66
2022/01/09 05:40:11;;;;;;;0.45;0.17;;;4.10;81.40;;;2.23;91.53;94165.09;4931734;28;20046;-68
2022/01/09 05:42:37;;;;;;;1.17;0.17;;;4.10;81.40;;;2.25;90.98;94168.28;4927813;29;20028;-67
2022/01/09 05:45:05;;;;;;;0.68;0.10;;;4.20;80.90;;;2.29;91.04;94158.38;4924933;29;20024;-65
2022/01/09 05:47:30;;;;;;;0.45;0.20;;;4.20;80.80;;;2.33;90.53;94159.59;4930674;29;20110;-65
2022/01/09 05:49:56;;;;;;;0.57;0.20;;;4.20;80.40;;;2.38;90.69;94165.03;4933675;29;20111;-64
2022/01/09 05:52:25;;;;;;;1.05;0.20;;;4.30;80.50;;;2.39;90.64;94164.84;4914559;28;20032;-67
2022/01/09 05:54:50;;;;;;;0.20;0.20;;;4.20;80.20;;;2.43;90.22;94170.47;4930805;29;20038;-64
2022/01/09 05:57:16;;;;;;;0.20;0.15;;;4.20;80.10;;;2.44;89.83;94170.28;4930959;29;20027;-65
2022/01/09 05:59:42;;;;;;;0.70;0.35;;;4.30;80.00;;;2.45;90.29;94174.47;4914986;29;20055;-66
2022/01/09 06:02:08;;;;;;;0.10;0.10;;;4.30;80.10;;;2.46;89.78;94170.88;4915522;29;20027;-65
2022/01/09 06:04:34;;;;;;;0.20;0.10;;;4.30;79.70;;;2.50;89.66;94160.16;4929833;28;20359;-65
2022/01/09 06:07:00;;;;;;;0.35;0.10;;;4.30;79.10;;;2.56;89.11;94156.81;4914420;29;20024;-65
2022/01/09 06:09:26;;;;;;;0.28;0.10;;;4.40;79.40;;;2.59;89.10;94157.25;4946476;28;20544;-65
2022/01/09 06:11:51;;;;;;;0.10;0.10;;;4.40;79.20;;;2.63;88.61;94155.06;4913920;29;20415;-64
2022/01/09 06:14:17;;;;;;;0.20;0.10;;;4.40;79.00;;;2.70;88.28;94168.88;4914327;28;20032;-65
2022/01/09 06:16:43;;;;;;;1.13;0.13;;;4.50;78.70;;;2.74;88.30;94175.34;4912987;29;20048;-66
2022/01/09 06:19:10;;;;;;;0.10;0.10;;;4.50;78.60;;;2.75;88.37;94169.16;4915133;29;20036;-65
2022/01/09 06:21:36;;;;;;;0.25;0.10;;;4.50;78.60;;;2.78;88.19;94178.34;4896369;29;20055;-67
2022/01/09 06:24:02;;;;;;;0.10;0.10;;;4.50;78.50;;;2.78;88.09;94179.16;4900002;29;20408;-66
2022/01/09 06:26:28;;;;;;;0.35;0.10;;;4.50;78.40;;;2.80;87.60;94184.97;4913985;28;20047;-66
2022/01/09 06:28:53;;;;;;;0.15;0.10;;;4.60;78.60;;;2.82;87.47;94195.16;4930585;29;20047;-66
2022/01/09 06:31:19;;;;;;;0.10;0.10;;;4.60;78.20;;;2.82;87.59;94189.97;4932176;29;20035;-66
2022/01/09 06:33:45;;;;;;;0.10;0.10;;;4.60;78.20;;;2.83;87.65;94207.13;4914841;29;20036;-66
2022/01/09 06:36:11;;;;;;;0.10;0.10;;;4.50;78.10;;;2.83;87.42;94201.94;4930077;28;20059;-66
2022/01/09 06:38:37;;;;;;;0.20;0.10;;;4.50;78.50;;;2.85;87.33;94205.16;4930859;29;20079;-67
2022/01/09 06:41:04;;;;;;;0.17;0.10;;;4.50;78.30;;;2.84;87.07;94206.94;4930414;29;20035;-66
2022/01/09 06:43:29;;;;;;;0.10;0.10;;;4.60;78.50;;;2.82;86.99;94202.94;4929826;29;20131;-66
2022/01/09 06:45:55;;;;;;;0.10;0.10;;;4.50;78.80;;;2.81;87.37;94207.34;4898954;29;20098;-66
2022/01/09 06:48:21;;;;;;;0.10;0.10;;;4.50;78.80;;;2.79;87.72;94206.72;4925260;29;20412;-66
2022/01/09 06:50:47;;;;;;;0.10;0.10;;;4.40;79.10;;;2.78;87.52;94219.88;4917742;29;20039;-67
2022/01/09 06:53:13;;;;;;;0.00;0.00;;;4.40;79.20;;;2.74;87.64;94229.84;4930326;29;20032;-66
2022/01/09 06:55:43;;;;;;;0.10;0.10;;;4.30;79.60;;;2.72;87.77;94237.00;4929831;29;20038;-66
2022/01/09 06:58:09;;;;;;;0.57;0.22;;;4.30;79.60;;;2.68;87.96;94231.38;4911594;29;20048;-67
2022/01/09 07:00:35;;;;;;;0.10;0.10;;;4.30;79.90;;;2.68;88.00;94240.94;4913190;29;20031;-67
2022/01/09 07:03:01;;;;;;;1.13;0.50;;;4.30;79.80;;;2.64;88.19;94234.53;4914387;29;20516;-66
2022/01/09 07:05:27;;;;;;;0.47;0.20;;;4.20;80.30;;;2.63;88.02;94258.88;4936115;29;20048;-65
2022/01/09 07:07:53;;;;;;;0.25;0.10;;;4.20;80.10;;;2.61;88.54;94268.63;4914801;29;20575;-65
2022/01/09 07:10:18;;;;;;;0.35;0.20;;;4.20;80.30;;;2.59;88.62;94273.22;4914177;29;20047;-66
2022/01/09 07:12:44;;;;;;;0.28;0.10;;;4.20;80.50;;;2.57;88.52;94281.19;4930592;29;20062;-66
2022/01/09 07:15:11;;;;;;;1.10;0.10;;;4.20;80.50;;;2.53;88.86;94279.94;4946123;29;20110;-67
2022/01/09 07:17:37;;;;;;;0.70;0.10;;;4.10;80.20;;;2.51;88.74;94296.69;4914726;29;20032;-66
2022/01/09 07:20:03;;;;;;;0.65;0.25;;;4.10;80.30;;;2.50;88.37;94311.47;4917111;29;20036;-67
2022/01/09 07:22:29;;;;;;;0.63;0.32;;;4.10;80.50;;;2.50;88.39;94310.66;4932599;29;20039;-66
2022/01/09 07:24:55;;;;;;;0.85;0.40;;;4.20;80.20;;;2.47;88.81;94312.59;4932686;29;20038;-67
2022/01/09 07:27:21;;;;;;;0.30;0.22;;;4.10;80.40;;;2.45;88.26;94339.72;4918006;29;20400;-67
2022/01/09 07:29:47;;;;;;;0.10;0.10;;;4.10;80.50;;;2.39;88.69;94341.25;4933408;29;20054;-69
2022/01/09 07:32:13;;;;;;;0.82;0.20;;;3.90;80.60;;;2.34;88.36;94363.56;4915704;29;20512;-70
2022/01/09 07:34:39;;;;;;;0.43;0.30;;;3.90;80.90;;;2.28;89.04;94367.69;4929963;29;20067;-67
2022/01/09 07:37:05;;;;;;;1.80;0.40;;;3.70;81.90;;;2.22;89.06;94360.59;4894119;29;20106;-67
2022/01/09 07:39:31;;;;;;;0.65;0.30;;;3.60;82.60;;;2.17;90.00;94378.50;4930362;29;20067;-67
2022/01/09 07:41:57;;;;;;;0.55;0.20;;;3.60;83.00;;;2.09;89.87;94389.78;4933377;29;20035;-65
2022/01/09 07:44:24;;;;;;;0.70;0.30;;;3.60;83.20;;;2.03;90.67;94392.25;4892806;28;20032;-66
2022/01/09 07:46:50;;;;;;;1.40;0.88;;;3.60;83.30;;;1.94;90.68;94395.94;4948810;28;20051;-66
2022/01/09 07:49:15;;;;;;;3.13;1.20;;;3.40;83.90;;;1.90;91.16;94415.41;4915770;29;20036;-66
2022/01/09 07:51:41;;;;;;;2.75;1.70;;;3.50;83.80;;;1.82;91.40;94417.13;4931545;29;20147;-68
2022/01/09 07:54:07;;;;;;;3.55;1.85;;;3.40;83.80;;;1.78;91.54;94425.41;4915303;29;20044;-66
2022/01/09 07:56:33;;;;;;;1.55;0.43;;;3.30;84.10;;;1.72;91.73;94429.50;4903880;29;20040;-66
2022/01/09 07:58:59;;;;;;;0.30;0.13;;;3.30;84.30;;;1.63;91.88;94422.78;4906554;29;20036;-66
2022/01/09 08:01:24;;;;;;;0.70;0.20;;;3.20;84.50;;;1.66;92.29;94444.97;4948770;28;20035;-67
2022/01/09 08:03:50;;;;;;;0.20;0.10;;;3.30;84.70;;;1.64;92.36;94433.97;4932697;29;20055;-67
2022/01/09 08:06:16;;;;;;;9.48;5.50;;;3.30;84.50;;;1.60;93.05;94443.06;4916637;29;20043;-66
2022/01/09 08:08:42;;;;;;;1.45;0.50;;;3.30;85.40;;;1.58;93.27;94461.34;4900858;29;20783;-66
2022/01/09 08:11:08;;;;;;;6.10;2.92;;;3.20;85.30;;;1.59;93.65;94468.19;4897955;29;20119;-67
2022/01/09 08:13:33;;;;;;;5.20;3.53;;;3.30;85.30;;;1.57;93.43;94466.72;4929569;29;20032;-66
2022/01/09 08:15:59;;;;;;;2.53;1.40;;;3.30;85.40;;;1.61;94.39;94486.94;4882003;29;20416;-67
2022/01/09 08:18:25;;;;;;;2.30;1.05;;;3.30;85.10;;;1.59;93.66;94488.09;4916282;29;20152;-66
2022/01/09 08:20:51;;;;;;;1.20;0.55;;;3.20;85.00;;;1.57;94.23;94496.03;4933501;28;20038;-69
2022/01/09 08:23:17;;;;;;;1.73;1.00;;;3.20;85.20;;;1.53;94.39;94500.75;4901371;29;20098;-69
2022/01/09 08:25:44;;;;;;;3.90;2.42;;;3.10;85.50;;;1.50;94.15;94498.50;4916242;29;20044;-69
2022/01/09 08:28:10;;;;;;;1.38;0.82;;;3.10;85.60;;;1.49;94.08;94503.84;4882191;28;20072;-67
2022/01/09 08:30:37;;;;;;;0.63;0.30;;;3.10;85.50;;;1.48;94.12;94512.63;4915761;29;20511;-64
2022/01/09 08:33:03;;;;;;;2.38;1.48;;;3.10;86.00;;;1.48;94.91;94512.63;4932711;29;20407;-65
2022/01/09 08:35:29;;;;;;;3.88;2.20;;;3.10;85.80;;;1.47;94.74;94511.00;4931802;29;20063;-65
2022/01/09 08:37:55;;;;;;;8.80;4.28;;;3.10;86.10;;;1.51;94.98;94525.22;4932068;29;20046;-65
2022/01/09 08:40:22;;;;;;;5.95;3.90;;;3.30;86.10;;;1.54;94.97;94522.28;4930981;29;20118;-67
2022/01/09 08:42:48;;;;;;;5.03;2.92;;;3.40;85.50;;;1.61;95.57;94527.59;4931812;29;20028;-64
2022/01/09 08:45:15;;;;;;;5.20;2.97;;;3.50;85.60;;;1.65;95.37;94524.47;4900864;29;20036;-65
2022/01/09 08:47:41;;;;;;;1.15;0.77;;;3.60;85.00;;;1.69;95.34;94536.13;4931855;29;20036;-66
2022/01/09 08:50:08;;;;;;;0.70;0.45;;;3.60;84.60;;;1.76;95.29;94541.41;4931855;29;20518;-64
2022/01/09 08:52:34;;;;;;;1.50;0.98;;;3.70;84.10;;;1.79;95.57;94541.84;4912635;29;20043;-65
2022/01/09 08:55:01;;;;;;;1.02;0.50;;;3.70;84.40;;;1.83;95.35;94543.16;4920444;29;20050;-64
2022/01/09 08:57:27;;;;;;;0.95;0.50;;;3.90;84.10;;;1.89;95.31;94552.00;4916014;29;20122;-64
2022/01/09 08:59:53;;;;;;;0.63;0.40;;;3.80;84.00;;;1.87;94.92;94545.41;4931644;29;20142;-66
2022/01/09 09:02:19;;;;;;;0.82;0.55;;;3.70;84.20;;;1.89;94.99;94546.03;4896272;29;20044;-67
2022/01/09 09:04:45;;;;;;;2.28;0.70;;;3.70;84.20;;;1.94;95.17;94559.25;4902190;29;20047;-65
2022/01/09 09:07:11;;;;;;;1.08;0.50;;;3.90;83.80;;;2.01;94.57;94567.94;4931965;29;20060;-66
2022/01/09 09:09:37;;;;;;;1.52;0.60;;;4.00;83.40;;;2.06;94.60;94574.25;4931530;29;20043;-65
2022/01/09 09:12:04;;;;;;;1.08;0.55;;;4.10;83.30;;;2.13;95.03;94569.16;4915991;29;20058;-64
2022/01/09 09:14:30;;;;;;;2.63;1.30;;;4.20;83.00;;;2.24;94.57;94586.09;4914682;28;20088;-64
2022/01/09 09:16:56;;;;;;;1.52;0.70;;;4.40;82.60;;;2.32;94.45;94576.47;4931720;29;20035;-65
2022/01/09 09:19:22;;;;;;;1.25;0.60;;;4.40;81.60;;;2.42;94.17;94573.63;4915519;29;20054;-69
2022/01/09 09:21:51;;;;;;;0.47;0.30;;;4.70;80.70;;;2.52;93.94;94578.56;4931366;29;20047;-71
2022/01/09 09:24:17;;;;;;;1.13;0.50;;;4.80;79.60;;;2.60;93.15;94587.06;4929880;29;20054;-70
2022/01/09 09:26:43;;;;;;;0.75;0.40;;;4.80;79.40;;;2.69;92.59;94592.97;4930623;28;20046;-70
2022/01/09 09:29:08;;;;;;;0.63;0.32;;;5.00;79.00;;;2.79;92.44;94601.31;4931375;29;20032;-69
2022/01/09 09:31:34;;;;;;;2.00;0.30;;;5.00;78.70;;;2.84;92.23;94596.41;4942872;29;20099;-65
2022/01/09 09:34:00;;;;;;;0.47;0.30;;;5.10;78.40;;;2.88;91.34;94605.44;4931086;29;20130;-67
2022/01/09 09:36:26;;;;;;;0.88;0.32;;;5.10;78.30;;;2.93;90.90;94605.72;4914032;28;20050;-65
2022/01/09 09:38:52;;;;;;;0.95;0.40;;;5.20;77.40;;;2.99;91.17;94612.81;4930942;29;20605;-65
2022/01/09 09:41:23;;;;;;;1.15;0.40;;;5.20;77.60;;;3.03;89.97;94611.47;4915061;29;20039;-64
2022/01/09 09:43:49;;;;;;;1.77;0.55;;;5.00;77.20;;;3.06;90.40;94612.88;4931939;28;20107;-64
2022/01/09 09:46:15;;;;;;;1.65;0.60;;;5.10;77.90;;;3.10;89.94;94623.72;4927212;29;20044;-63
2022/01/09 09:48:41;;;;;;;3.70;0.65;;;5.10;77.20;;;3.13;89.89;94636.34;4912148;29;20039;-64
2022/01/09 09:51:07;;;;;;;2.10;0.77;;;5.20;77.30;;;3.14;89.50;94630.97;4927353;29;20118;-65
2022/01/09 09:53:33;;;;;;;1.38;0.63;;;5.50;76.10;;;3.22;89.16;94632.69;4912956;29;20054;-65
2022/01/09 09:55:59;;;;;;;2.08;0.65;;;5.70;74.60;;;3.26;88.95;94645.13;4930437;29;20047;-64
2022/01/09 09:58:24;;;;;;;1.00;0.50;;;5.60;75.30;;;3.30;88.60;94645.59;4922649;28;20040;-62
2022/01/09 10:00:57;;;;;;;2.10;1.10;;;5.40;75.40;;;3.33;88.04;94642.63;4913661;29;20067;-64
2022/01/09 10:03:30;;;;;;;1.30;0.50;;;5.50;75.70;;;3.30;87.33;94646.38;4927805;29;20522;-63
2022/01/09 10:05:55;;;;;;;1.88;0.30;;;5.20;75.70;;;3.31;87.42;94657.59;4913717;29;20395;-63
2022/01/09 10:08:21;;;;;;;2.00;0.55;;;5.10;75.70;;;3.28;87.26;94658.75;4929566;29;20047;-67
2022/01/09 10:10:47;;;;;;;0.63;0.40;;;5.10;76.60;;;3.31;87.16;94655.00;4930674;29;20040;-66
2022/01/09 10:13:18;;;;;;;0.68;0.40;;;5.40;75.80;;;3.40;87.34;94661.72;4930290;29;20055;-67
2022/01/09 10:15:52;;;;;;;1.00;0.52;;;5.70;74.70;;;3.44;86.38;94662.97;4898951;29;20032;-67
2022/01/09 10:18:39;;;;;;;1.30;0.50;;;5.70;73.80;;;3.51;86.35;94674.25;4900571;28;20050;-67
2022/01/09 10:21:19;;;;;;;1.15;0.40;;;5.80;74.10;;;3.51;86.35;94655.25;4946443;29;20035;-67
2022/01/09 10:24:05;;;;;;;2.55;0.60;;;5.60;74.20;;;3.51;85.63;94669.06;4895946;29;20158;-68
2022/01/09 10:26:33;;;;;;;2.33;0.55;;;5.60;74.00;;;3.53;85.99;94671.47;4902858;28;20043;-66
2022/01/09 10:29:02;;;;;;;2.80;0.45;;;5.50;74.20;;;3.52;85.25;94668.06;4895311;29;20103;-67